Time;durP1;ratioP1;P1;durP2;ratioP2;P2;SDS_P1;SDS_P2;PMS_P1;PMS_P2;Temp;Humidity;BMP_temperature;BMP_pressure;BME280_temperature;BME280_humidity;BME280_pressure;Samples;Min_cycle;Max_cycle;Signal;HPM_P1;HPM_P2
2023/05/03 00:01:43;;;;;;;15.95;7.85;;;;;;;7.98;83.22;101742.31;8332063;28;20422;-61
2023/05/03 00:05:44;;;;;;;20.98;8.73;;;;;;;7.90;83.84;101751.81;8329597;28;20086;-61
2023/05/03 00:09:44;;;;;;;23.23;9.70;;;;;;;7.88;83.67;101746.53;8321447;28;20042;-62
2023/05/03 00:13:45;;;;;;;19.67;9.68;;;;;;;7.92;84.15;101749.88;8321882;28;20058;-61
2023/05/03 00:17:46;;;;;;;23.02;9.65;;;;;;;7.90;83.53;101735.66;8322843;28;20053;-61
2023/05/03 00:21:46;;;;;;;21.08;9.55;;;;;;;7.88;83.54;101733.06;8327086;28;20072;-63
2023/05/03 00:25:52;;;;;;;21.15;10.02;;;;;;;7.84;83.55;101731.50;8327017;28;20045;-61
2023/05/03 00:29:52;;;;;;;18.40;9.25;;;;;;;7.78;84.23;101737.25;8326892;28;20366;-62
2023/05/03 00:33:52;;;;;;;20.52;8.70;;;;;;;7.68;85.50;101736.09;8325632;28;20045;-62
2023/05/03 00:37:53;;;;;;;27.98;9.20;;;;;;;7.67;85.43;101744.25;8325203;28;20724;-61
2023/05/03 00:41:56;;;;;;;22.80;9.27;;;;;;;7.38;88.31;101751.34;8324316;28;20048;-61
2023/05/03 00:45:59;;;;;;;22.42;9.98;;;;;;;7.03;88.25;101740.94;8325540;28;20072;-61
2023/05/03 00:50:00;;;;;;;16.98;9.70;;;;;;;6.75;90.98;101747.03;8340847;28;20451;-61
2023/05/03 00:54:01;;;;;;;19.15;9.60;;;;;;;6.72;91.46;101746.31;8325362;28;20059;-61
2023/05/03 00:58:02;;;;;;;17.80;9.73;;;;;;;6.90;89.98;101738.09;8324681;28;20514;-62
2023/05/03 01:02:04;;;;;;;20.80;9.38;;;;;;;6.82;90.99;101732.28;8326436;28;20412;-61
2023/05/03 01:10:47;;;;;;;18.42;9.93;;;;;;;6.34;92.95;101740.38;8417137;27;20464;-61
2023/05/03 01:15:11;;;;;;;21.63;10.82;;;;;;;6.28;96.36;101729.97;8416830;28;20448;-60
2023/05/03 01:19:24;;;;;;;19.35;10.07;;;;;;;6.24;95.69;101735.59;8417603;28;20043;-60
2023/05/03 01:23:35;;;;;;;17.50;9.77;;;;;;;5.98;97.06;101731.66;8417298;28;20538;-60
2023/05/03 01:27:37;;;;;;;21.33;10.88;;;;;;;5.96;97.76;101736.22;8416734;28;20036;-60
2023/05/03 01:31:45;;;;;;;19.88;9.68;;;;;;;5.85;97.82;101735.91;8417132;28;20076;-60
2023/05/03 01:35:53;;;;;;;20.95;11.43;;;;;;;5.90;98.00;101734.75;8416280;28;20571;-60
2023/05/03 01:39:59;;;;;;;19.02;10.13;;;;;;;6.13;98.26;101743.38;8416842;28;20036;-62
2023/05/03 01:44:00;;;;;;;20.52;11.30;;;;;;;5.78;97.34;101729.09;8416031;28;20032;-60
2023/05/03 01:48:00;;;;;;;22.30;9.48;;;;;;;5.79;99.60;101730.84;8414785;28;20040;-60
2023/05/03 01:52:01;;;;;;;19.25;10.75;;;;;;;5.59;98.31;101739.06;8414454;28;20127;-60
2023/05/03 01:56:01;;;;;;;22.98;11.05;;;;;;;5.53;99.31;101736.69;8415952;28;20078;-60
2023/05/03 02:00:03;;;;;;;24.23;11.00;;;;;;;5.65;98.20;101741.44;8415248;28;20038;-61
2023/05/03 02:04:15;;;;;;;20.90;10.57;;;;;;;5.73;98.75;101747.25;8414123;28;20040;-61
2023/05/03 02:08:16;;;;;;;26.88;10.80;;;;;;;5.78;99.12;101750.56;8412048;28;20033;-61
2023/05/03 02:12:16;;;;;;;21.83;11.00;;;;;;;5.77;98.06;101759.56;8413021;28;20064;-61
2023/05/03 02:16:17;;;;;;;22.23;11.73;;;;;;;5.77;97.15;101754.22;8414969;28;20495;-61
2023/05/03 02:20:18;;;;;;;18.88;10.55;;;;;;;5.45;97.33;101747.81;8400142;28;20032;-63
2023/05/03 02:24:18;;;;;;;21.58;11.40;;;;;;;5.49;100.00;101754.75;8392992;28;20513;-64
2023/05/03 02:28:19;;;;;;;26.30;10.85;;;;;;;5.26;98.92;101763.09;8392512;28;20448;-64
2023/05/03 02:32:20;;;;;;;24.45;11.10;;;;;;;5.23;98.51;101773.09;8391280;28;20045;-64
2023/05/03 02:36:21;;;;;;;24.10;11.93;;;;;;;5.18;99.73;101783.19;8392077;28;20126;-65
2023/05/03 02:40:22;;;;;;;22.95;12.05;;;;;;;5.03;100.00;101775.91;8392768;28;20043;-64
2023/05/03 02:44:23;;;;;;;29.90;12.07;;;;;;;5.01;100.00;101786.72;8392743;28;20033;-64
2023/05/03 02:48:24;;;;;;;20.55;11.27;;;;;;;5.13;100.00;101777.19;8392196;28;20395;-64
2023/05/03 02:52:24;;;;;;;21.92;12.43;;;;;;;4.99;100.00;101768.94;8391190;28;20119;-64
2023/05/03 02:56:25;;;;;;;24.75;11.88;;;;;;;5.09;100.00;101767.56;8391497;28;20047;-63
2023/05/03 03:00:26;;;;;;;24.13;11.63;;;;;;;5.15;100.00;101764.56;8392118;28;20058;-62
2023/05/03 03:04:28;;;;;;;32.83;12.85;;;;;;;5.39;100.00;101757.97;8391788;28;20032;-62
2023/05/03 03:08:28;;;;;;;24.48;11.73;;;;;;;5.16;100.00;101758.28;8391338;28;20037;-63
2023/05/03 03:12:35;;;;;;;23.42;12.68;;;;;;;4.80;100.00;101768.09;8391820;28;20048;-62
2023/05/03 03:16:39;;;;;;;21.50;11.95;;;;;;;4.73;100.00;101756.81;8389535;28;20044;-62
2023/05/03 03:20:39;;;;;;;24.52;12.05;;;;;;;4.75;100.00;101754.94;8388673;28;20115;-62
2023/05/03 03:24:39;;;;;;;27.23;13.70;;;;;;;4.58;100.00;101745.97;8390122;28;20119;-62
2023/05/03 03:28:40;;;;;;;27.02;12.60;;;;;;;4.69;100.00;101732.91;8390655;28;20048;-62
2023/05/03 03:32:44;;;;;;;31.10;13.93;;;;;;;4.75;100.00;101732.63;8389580;28;20498;-62
2023/05/03 03:36:50;;;;;;;27.05;12.00;;;;;;;4.90;100.00;101721.16;8389381;28;20036;-62
2023/05/03 03:40:53;;;;;;;25.95;12.68;;;;;;;4.74;100.00;101725.53;8391531;28;20552;-62
2023/05/03 03:44:53;;;;;;;24.30;13.15;;;;;;;4.75;100.00;101721.91;8389413;28;20560;-62
2023/05/03 03:48:54;;;;;;;25.33;13.00;;;;;;;4.85;100.00;101713.34;8390046;28;20388;-62
2023/05/03 03:52:56;;;;;;;25.02;12.35;;;;;;;4.45;100.00;101723.41;8389840;28;20496;-62
2023/05/03 03:56:57;;;;;;;27.48;12.50;;;;;;;4.47;100.00;101726.84;8369182;28;20032;-63
2023/05/03 04:00:59;;;;;;;30.13;13.57;;;;;;;4.42;100.00;101712.84;8387206;28;20040;-63
2023/05/03 04:05:02;;;;;;;28.95;12.50;;;;;;;4.44;100.00;101721.66;8355581;28;20033;-63
2023/05/03 04:09:03;;;;;;;30.35;12.50;;;;;;;4.42;100.00;101712.84;8369226;28;20067;-63
2023/05/03 04:13:07;;;;;;;24.07;12.03;;;;;;;4.47;100.00;101710.78;8362209;28;20045;-62
2023/05/03 04:17:09;;;;;;;26.08;12.75;;;;;;;4.41;100.00;101711.09;8354355;28;20048;-63
2023/05/03 04:21:09;;;;;;;27.70;12.35;;;;;;;4.35;100.00;101706.91;8362754;28;20124;-63
2023/05/03 04:25:13;;;;;;;24.00;13.15;;;;;;;4.34;100.00;101707.84;8389209;28;20115;-63
2023/05/03 04:29:15;;;;;;;;;;;;;;;4.46;100.00;101715.28;8377947;28;20083;-63
2023/05/03 04:33:19;;;;;;;27.15;13.88;;;;;;;4.51;100.00;101717.75;8378483;28;19927;-62
2023/05/03 04:37:22;;;;;;;32.40;14.68;;;;;;;4.49;100.00;101724.97;8388509;28;20047;-63
2023/05/03 04:41:23;;;;;;;28.00;14.65;;;;;;;4.40;100.00;101738.81;8388795;28;20044;-63
2023/05/03 04:45:25;;;;;;;29.75;14.40;;;;;;;4.68;100.00;101744.59;8385864;28;20039;-63
2023/05/03 04:49:27;;;;;;;32.78;16.00;;;;;;;4.73;100.00;101755.97;8388578;28;20032;-63
2023/05/03 04:53:28;;;;;;;26.60;14.10;;;;;;;4.86;100.00;101757.97;8387608;28;20040;-62
2023/05/03 04:57:37;;;;;;;32.67;14.30;;;;;;;4.89;100.00;101746.22;8385548;28;20523;-63
2023/05/03 05:01:38;;;;;;;28.35;13.38;;;;;;;5.04;100.00;101740.13;8387481;28;20086;-63
2023/05/03 05:05:41;;;;;;;25.30;13.75;;;;;;;5.48;100.00;101754.84;8386134;28;20056;-61
2023/05/03 05:09:44;;;;;;;23.55;12.60;;;;;;;5.59;100.00;101760.53;8410763;28;20463;-61
2023/05/03 05:13:46;;;;;;;25.98;13.00;;;;;;;5.71;100.00;101767.94;8387494;28;20113;-61
2023/05/03 05:17:46;;;;;;;23.98;13.93;;;;;;;5.72;100.00;101756.25;8354252;28;20037;-61
2023/05/03 05:21:48;;;;;;;25.67;14.18;;;;;;;5.81;100.00;101771.88;8372882;28;20514;-60
2023/05/03 05:25:50;;;;;;;30.00;13.88;;;;;;;6.01;98.81;101779.81;8382993;28;20036;-63
2023/05/03 05:29:51;;;;;;;33.97;14.25;;;;;;;6.28;97.03;101783.69;8388050;28;20029;-63
2023/05/03 05:33:53;;;;;;;27.42;13.80;;;;;;;6.72;95.12;101789.31;8386313;28;20136;-61
2023/05/03 05:37:53;;;;;;;24.25;13.73;;;;;;;6.95;94.14;101789.75;8386224;28;20033;-62
2023/05/03 05:41:54;;;;;;;32.80;14.73;;;;;;;7.34;92.09;101795.53;8380238;28;20040;-62
2023/05/03 05:45:57;;;;;;;26.40;13.68;;;;;;;7.47;89.75;101785.78;8379248;28;20040;-64
2023/05/03 05:49:57;;;;;;;23.65;14.02;;;;;;;7.32;91.37;101789.38;8362219;28;20065;-62
2023/05/03 05:53:58;;;;;;;31.80;13.35;;;;;;;7.62;90.26;101801.03;8384901;28;20115;-61
2023/05/03 05:57:59;;;;;;;30.48;13.35;;;;;;;7.75;89.92;101796.66;8390445;28;20070;-64
2023/05/03 06:02:15;;;;;;;22.70;12.85;;;;;;;7.89;89.42;101810.16;8390559;28;20559;-65
2023/05/03 06:06:17;;;;;;;27.10;14.77;;;;;;;8.31;91.21;101803.16;8390058;28;20037;-64
2023/05/03 06:10:17;;;;;;;24.55;13.68;;;;;;;8.63;89.00;101812.81;8390448;28;20132;-65
2023/05/03 06:14:21;;;;;;;31.10;14.03;;;;;;;8.28;86.58;101817.69;8390432;28;20040;-61
2023/05/03 06:18:23;;;;;;;29.38;14.68;;;;;;;8.76;87.69;101813.75;8388284;28;20498;-62
2023/05/03 06:22:24;;;;;;;28.33;14.93;;;;;;;8.91;86.04;101812.78;8373958;28;20764;-62
2023/05/03 06:26:24;;;;;;;30.88;13.65;;;;;;;9.27;86.12;101807.69;8390471;28;20596;-62
2023/05/03 06:30:27;;;;;;;23.02;13.05;;;;;;;9.29;83.91;101813.84;8390819;28;20143;-62
2023/05/03 06:34:29;;;;;;;29.00;15.30;;;;;;;9.55;84.54;101821.09;8387077;28;20467;-62
2023/05/03 06:38:30;;;;;;;21.98;13.13;;;;;;;9.87;82.68;101822.47;8378980;28;20064;-60
2023/05/03 06:42:31;;;;;;;27.60;13.68;;;;;;;9.75;83.93;101817.91;8381100;28;20041;-62
2023/05/03 06:46:42;;;;;;;23.95;13.35;;;;;;;10.27;81.39;101820.66;8389449;28;20102;-64
2023/05/03 06:50:43;;;;;;;29.42;14.05;;;;;;;10.58;80.69;101820.22;8389752;28;20040;-63
2023/05/03 06:54:43;;;;;;;25.50;12.60;;;;;;;10.80;77.53;101821.25;8389198;28;20052;-63
2023/05/03 06:58:44;;;;;;;25.88;13.05;;;;;;;10.96;77.70;101811.09;8361636;28;20549;-62
2023/05/03 07:02:44;;;;;;;24.73;12.40;;;;;;;11.12;76.64;101810.81;8356168;28;20025;-63
2023/05/03 07:06:45;;;;;;;22.40;11.85;;;;;;;11.43;75.50;101805.72;8354867;28;20333;-61
2023/05/03 07:10:45;;;;;;;21.02;12.27;;;;;;;11.23;76.46;101797.38;8354630;28;20067;-61
2023/05/03 07:14:46;;;;;;;27.85;13.27;;;;;;;11.44;76.44;101807.44;8376977;28;20045;-61
2023/05/03 07:18:47;;;;;;;23.85;12.70;;;;;;;11.54;73.98;101792.25;8361349;28;20047;-61
2023/05/03 07:22:48;;;;;;;22.00;11.48;;;;;;;11.98;74.02;101810.56;8380847;28;20047;-61
2023/05/03 07:26:48;;;;;;;23.33;12.32;;;;;;;12.00;71.12;101780.63;8365189;28;20041;-61
2023/05/03 07:30:50;;;;;;;19.77;12.38;;;;;;;12.18;70.94;101792.75;8367769;28;20467;-61
2023/05/03 07:34:50;;;;;;;28.85;13.68;;;;;;;12.21;70.98;101792.50;8352575;28;20041;-61
2023/05/03 07:38:51;;;;;;;22.23;12.02;;;;;;;12.44;69.45;101784.28;8365988;28;20044;-61
2023/05/03 07:42:51;;;;;;;19.00;11.45;;;;;;;12.57;68.26;101785.06;8353063;28;20033;-61
2023/05/03 07:46:51;;;;;;;28.17;12.27;;;;;;;12.68;67.49;101786.88;8354467;28;20548;-60
2023/05/03 07:50:52;;;;;;;18.02;10.98;;;;;;;12.84;67.25;101771.13;8367716;28;20124;-60
2023/05/03 07:54:52;;;;;;;24.70;12.63;;;;;;;12.93;64.93;101775.78;8386927;28;20101;-61
2023/05/03 07:58:53;;;;;;;22.25;12.38;;;;;;;13.11;66.52;101774.28;8381906;28;20124;-61
2023/05/03 08:02:53;;;;;;;27.58;11.90;;;;;;;13.05;66.11;101763.97;8364239;28;20037;-61
2023/05/03 08:06:54;;;;;;;16.95;10.52;;;;;;;13.57;64.64;101766.75;8362044;28;20052;-61
2023/05/03 08:10:54;;;;;;;19.48;10.73;;;;;;;13.18;63.17;101759.25;8366102;28;20547;-61
2023/05/03 08:14:55;;;;;;;17.67;10.93;;;;;;;13.31;63.97;101762.66;8360788;28;20271;-61
2023/05/03 08:18:55;;;;;;;19.27;10.32;;;;;;;13.53;64.41;101759.88;8359794;28;20036;-61
2023/05/03 08:22:56;;;;;;;22.52;11.52;;;;;;;13.68;62.23;101758.56;8384908;28;20079;-61
2023/05/03 08:26:56;;;;;;;19.35;11.48;;;;;;;13.26;61.57;101759.44;8386178;28;20091;-60
2023/05/03 08:30:56;;;;;;;15.55;9.75;;;;;;;13.40;61.40;101759.19;8386812;28;20503;-60
2023/05/03 08:34:57;;;;;;;15.95;9.27;;;;;;;13.71;61.02;101759.19;8385528;28;20139;-60
2023/05/03 08:38:58;;;;;;;11.70;9.23;;;;;;;13.68;60.50;101766.72;8399979;28;20365;-61
2023/05/03 08:43:05;;;;;;;15.93;9.20;;;;;;;13.55;59.81;101757.88;8358195;28;20033;-60
2023/05/03 08:47:06;;;;;;;22.25;11.35;;;;;;;13.88;61.31;101758.59;8377449;28;20033;-61
2023/05/03 08:51:09;;;;;;;16.15;10.07;;;;;;;14.12;62.28;101755.59;8366798;28;20044;-60
2023/05/03 08:55:10;;;;;;;14.98;9.70;;;;;;;13.92;60.50;101751.03;8367063;28;20328;-60
2023/05/03 08:59:10;;;;;;;16.02;11.05;;;;;;;13.71;60.45;101747.44;8357411;28;20033;-62
2023/05/03 09:03:11;;;;;;;16.73;9.25;;;;;;;14.46;61.10;101740.81;8352215;28;20043;-62
2023/05/03 09:07:12;;;;;;;12.38;7.32;;;;;;;14.19;57.90;101740.50;8351218;28;20356;-62
2023/05/03 09:11:23;;;;;;;16.95;7.80;;;;;;;14.06;57.44;101747.97;8367779;28;20807;-60
2023/05/03 09:15:25;;;;;;;17.13;8.40;;;;;;;14.12;59.59;101746.59;8362343;28;20037;-59
2023/05/03 09:19:26;;;;;;;13.15;8.05;;;;;;;14.48;59.01;101749.69;8364496;28;20066;-60
2023/05/03 09:27:41;;;;;;;13.57;8.20;;;;;;;14.60;58.63;101726.84;8351099;27;20655;-60
2023/05/03 09:31:58;;;;;;;17.73;7.95;;;;;;;14.75;57.67;101725.47;8348199;28;20042;-61
2023/05/03 09:36:01;;;;;;;14.82;8.52;;;;;;;15.29;57.52;101720.44;8361304;28;20100;-60
2023/05/03 09:40:06;;;;;;;14.27;8.63;;;;;;;14.98;57.84;101724.22;8341521;28;20103;-61
2023/05/03 09:44:07;;;;;;;11.50;7.57;;;;;;;15.50;56.63;101723.91;8326379;28;20578;-60
2023/05/03 09:48:07;;;;;;;15.38;8.20;;;;;;;16.89;55.52;101715.84;8333207;28;20046;-60
2023/05/03 09:52:08;;;;;;;11.32;6.78;;;;;;;17.99;50.59;101719.06;8347104;28;20152;-62
2023/05/03 09:56:13;;;;;;;295.25;20.42;;;;;;;18.80;49.28;101704.91;8335083;28;20563;-62
2023/05/03 10:00:16;;;;;;;10.60;6.18;;;;;;;19.19;48.57;101697.81;8379622;28;20120;-62
2023/05/03 10:04:19;;;;;;;12.00;6.30;;;;;;;19.27;47.42;101692.38;8378894;28;20552;-63
2023/05/03 10:08:32;;;;;;;15.43;6.53;;;;;;;19.96;46.66;101691.06;8379383;28;20074;-62
2023/05/03 10:12:35;;;;;;;9.88;6.45;;;;;;;20.08;46.73;101670.47;8352522;28;20032;-63
2023/05/03 10:16:37;;;;;;;10.52;6.10;;;;;;;19.95;45.30;101672.88;8346364;28;20538;-62
2023/05/03 10:20:44;;;;;;;7.15;6.05;;;;;;;20.67;45.51;101669.97;8346059;28;20170;-63
2023/05/03 10:33:45;;;;;;;8.20;5.18;;;;;;;20.86;45.66;101666.81;8414870;27;20370;-62
2023/05/03 10:37:48;;;;;;;7.47;5.50;;;;;;;21.37;44.83;101670.88;8414297;28;20036;-62
2023/05/03 10:41:58;;;;;;;9.00;5.65;;;;;;;21.96;45.22;101664.56;8375074;28;20033;-61
2023/05/03 10:46:01;;;;;;;10.45;5.80;;;;;;;21.42;44.53;101663.75;8380394;28;20036;-62
2023/05/03 10:54:30;;;;;;;6.72;5.32;;;;;;;22.06;43.99;101663.25;8404834;27;20982;-62
2023/05/03 10:58:50;;;;;;;1621.43;117.75;;;;;;;22.27;40.94;101665.28;8398039;27;20493;-62
2023/05/03 11:07:30;;;;;;;7.82;4.53;;;;;;;22.75;43.39;101654.56;8348609;27;20377;-62
2023/05/03 11:11:31;;;;;;;5.78;5.15;;;;;;;23.22;40.97;101645.81;8345910;28;20033;-62
2023/05/03 11:15:32;;;;;;;7.78;5.53;;;;;;;21.87;40.97;101647.25;8347520;28;20521;-62
2023/05/03 11:19:34;;;;;;;11.68;5.45;;;;;;;22.80;42.49;101640.19;8347541;28;20037;-62
2023/05/03 11:23:37;;;;;;;7.07;5.47;;;;;;;22.98;40.09;101633.22;8347199;28;20116;-62
2023/05/03 11:27:41;;;;;;;8.10;4.63;;;;;;;24.23;39.93;101635.31;8346490;28;20068;-62
2023/05/03 11:31:42;;;;;;;10.93;5.28;;;;;;;23.38;40.22;101639.19;8347227;28;20033;-64
2023/05/03 11:35:43;;;;;;;5.57;4.10;;;;;;;22.47;42.47;101628.69;8346126;28;20061;-63
2023/05/03 11:39:43;;;;;;;101.82;13.02;;;;;;;22.23;39.98;101615.19;8347037;28;20063;-64
2023/05/03 11:43:46;;;;;;;8.40;5.00;;;;;;;23.13;39.53;101619.38;8366137;28;20053;-64
2023/05/03 11:47:47;;;;;;;10.13;5.68;;;;;;;23.14;41.31;101616.41;8344190;28;20700;-64
2023/05/03 11:51:47;;;;;;;9.25;5.07;;;;;;;23.18;41.79;101609.44;8344153;28;20411;-64
2023/05/03 11:55:52;;;;;;;6.47;4.90;;;;;;;21.92;42.51;101622.75;8346005;28;20037;-62
2023/05/03 11:59:52;;;;;;;15.18;4.93;;;;;;;19.27;44.84;101603.75;8338165;28;20040;-63
2023/05/03 12:03:58;;;;;;;8.52;5.03;;;;;;;19.22;45.08;101598.75;8345590;28;20067;-63
2023/05/03 12:07:58;;;;;;;28.35;5.68;;;;;;;18.35;48.15;101600.22;8345881;28;20045;-64
2023/05/03 12:12:01;;;;;;;39.67;7.78;;;;;;;18.18;45.52;101598.44;8341214;28;20041;-64
2023/05/03 12:16:03;;;;;;;7.82;5.15;;;;;;;18.21;46.21;101586.28;8339578;28;20413;-64
2023/05/03 12:20:21;;;;;;;10.85;5.07;;;;;;;18.03;46.23;101591.84;8317115;28;20041;-63
2023/05/03 12:24:22;;;;;;;13.45;5.07;;;;;;;18.53;45.58;101578.22;8294435;28;20037;-64
2023/05/03 12:28:22;;;;;;;9.10;4.65;;;;;;;17.95;46.77;101585.44;8314936;28;20133;-64
2023/05/03 12:32:23;;;;;;;19.45;6.00;;;;;;;17.88;48.59;101571.56;8323918;28;20029;-64
2023/05/03 12:36:23;;;;;;;9.25;5.22;;;;;;;17.90;48.37;101571.41;8322826;28;20515;-63
2023/05/03 12:40:27;;;;;;;11.93;4.47;;;;;;;17.81;46.39;101562.28;8320809;28;20053;-63
2023/05/03 12:44:27;;;;;;;8.48;5.43;;;;;;;17.84;46.78;101566.59;8321630;28;20064;-63
2023/05/03 12:48:29;;;;;;;9.30;4.55;;;;;;;17.82;47.45;101553.06;8322233;28;20073;-63
2023/05/03 12:52:30;;;;;;;9.10;5.18;;;;;;;17.94;49.15;101554.50;8322935;28;20029;-63
2023/05/03 12:56:31;;;;;;;9.18;5.80;;;;;;;17.81;48.10;101539.56;8321712;28;20033;-63
2023/05/03 13:00:32;;;;;;;10.05;4.22;;;;;;;18.11;47.97;101537.13;8322938;28;20037;-63
2023/05/03 13:04:33;;;;;;;10.80;5.03;;;;;;;18.52;48.29;101524.47;8321088;28;20125;-63
2023/05/03 13:08:34;;;;;;;10.40;5.32;;;;;;;18.40;48.44;101521.19;8319290;28;20534;-63
2023/05/03 13:12:35;;;;;;;8.27;5.35;;;;;;;18.25;46.11;101517.34;8321901;28;20034;-63
2023/05/03 13:16:37;;;;;;;10.50;5.95;;;;;;;17.98;46.57;101503.03;8321987;28;20049;-63
2023/05/03 13:20:38;;;;;;;10.82;6.07;;;;;;;18.30;47.57;101506.75;8321333;28;20453;-63
2023/05/03 13:24:40;;;;;;;8.15;4.85;;;;;;;18.14;46.31;101503.94;8318800;28;20095;-64
2023/05/03 13:28:40;;;;;;;8.10;4.72;;;;;;;18.20;46.59;101489.59;8320350;28;20041;-64
2023/05/03 13:32:41;;;;;;;7.55;5.22;;;;;;;18.29;46.08;101491.34;8320602;28;20043;-64
2023/05/03 13:36:41;;;;;;;13.68;5.78;;;;;;;18.42;46.87;101486.28;8318716;28;20453;-64
2023/05/03 13:40:42;;;;;;;9.43;4.95;;;;;;;18.40;45.44;101482.88;8319687;28;20165;-64
2023/05/03 13:44:45;;;;;;;11.85;5.60;;;;;;;18.20;45.86;101473.19;8318941;28;20049;-64
2023/05/03 13:48:46;;;;;;;11.00;4.97;;;;;;;18.42;46.78;101469.00;8319279;28;20308;-64
2023/05/03 13:52:47;;;;;;;8.90;4.60;;;;;;;18.47;46.20;101456.50;8316283;28;20065;-63
2023/05/03 13:56:47;;;;;;;9.75;4.70;;;;;;;18.49;45.67;101449.00;8317315;28;20284;-64
2023/05/03 14:00:47;;;;;;;9.55;5.07;;;;;;;18.52;48.49;101445.06;8319703;28;20246;-64
2023/05/03 14:04:48;;;;;;;11.68;5.82;;;;;;;18.37;47.08;101439.38;8316515;28;20430;-63
2023/05/03 14:08:49;;;;;;;7.88;5.00;;;;;;;18.59;46.85;101416.81;8310739;28;20411;-62
2023/05/03 14:12:51;;;;;;;9.82;4.57;;;;;;;18.53;46.93;101425.72;8318088;28;20049;-63
2023/05/03 14:16:51;;;;;;;10.68;4.50;;;;;;;18.49;47.45;101412.53;8314668;28;20064;-63
2023/05/03 14:20:51;;;;;;;10.73;5.28;;;;;;;18.76;46.22;101413.03;8311386;28;20507;-63
2023/05/03 14:24:52;;;;;;;10.20;5.38;;;;;;;18.72;47.56;101406.19;8316099;28;20478;-64
2023/05/03 14:28:52;;;;;;;6.88;5.05;;;;;;;18.61;47.71;101401.06;8316284;28;20042;-63
2023/05/03 14:32:53;;;;;;;7.18;4.50;;;;;;;18.75;46.47;101402.25;8316621;28;20041;-64
2023/05/03 14:36:54;;;;;;;10.70;4.35;;;;;;;18.60;47.44;101399.34;8297552;28;20042;-64
2023/05/03 14:40:54;;;;;;;7.85;4.65;;;;;;;18.46;46.02;101394.56;8316237;28;20593;-63
2023/05/03 14:44:55;;;;;;;7.55;4.60;;;;;;;18.54;46.04;101380.84;8316952;28;20053;-63
2023/05/03 14:48:55;;;;;;;6.70;4.40;;;;;;;18.88;44.99;101367.81;8317933;28;20506;-64
2023/05/03 14:52:56;;;;;;;4.10;3.10;;;;;;;18.90;44.88;101367.63;8315957;28;20135;-64
2023/05/03 14:56:57;;;;;;;8.23;3.90;;;;;;;19.00;47.17;101355.47;8310258;28;20408;-65
2023/05/03 15:00:57;;;;;;;6.00;4.05;;;;;;;18.76;45.42;101369.19;8316970;28;20064;-66
2023/05/03 15:04:58;;;;;;;7.93;4.50;;;;;;;18.83;45.74;101356.53;8316724;28;20057;-65
2023/05/03 15:08:59;;;;;;;7.18;3.90;;;;;;;18.93;46.87;101365.41;8286279;28;20463;-66
2023/05/03 15:12:59;;;;;;;8.18;4.00;;;;;;;18.98;45.49;101367.63;8316044;28;20041;-68
2023/05/03 15:17:00;;;;;;;7.35;3.90;;;;;;;18.76;45.98;101358.22;8314530;28;20755;-66
2023/05/03 15:21:00;;;;;;;7.78;3.72;;;;;;;18.73;45.61;101352.25;8317401;28;20045;-65
2023/05/03 15:25:01;;;;;;;7.20;3.60;;;;;;;18.84;45.93;101355.50;8330601;28;20041;-65
2023/05/03 15:29:02;;;;;;;6.28;3.40;;;;;;;18.97;45.53;101350.31;8317011;28;20041;-65
2023/05/03 15:33:03;;;;;;;10.73;4.43;;;;;;;19.20;46.65;101353.19;8314495;28;20129;-67
2023/05/03 15:37:04;;;;;;;7.50;4.20;;;;;;;18.94;45.14;101356.16;8316710;28;20048;-65
2023/05/03 15:41:05;;;;;;;6.68;4.47;;;;;;;18.95;45.98;101357.03;8312318;28;20050;-65
2023/05/03 15:45:08;;;;;;;8.90;4.65;;;;;;;18.83;46.59;101341.97;8315165;28;20259;-65
2023/05/03 15:49:10;;;;;;;7.50;4.32;;;;;;;18.81;46.25;101339.41;8313236;28;20057;-66
2023/05/03 15:53:11;;;;;;;5.72;3.47;;;;;;;18.96;46.53;101332.19;8321035;28;20039;-66
2023/05/03 15:57:11;;;;;;;8.95;3.72;;;;;;;19.09;45.35;101343.44;8337779;28;20037;-63
2023/05/03 16:01:12;;;;;;;8.48;4.40;;;;;;;19.10;45.92;101334.22;8322223;28;20038;-64
2023/05/03 16:05:13;;;;;;;6.47;4.28;;;;;;;19.15;47.06;101320.81;8321210;28;20123;-63
2023/05/03 16:09:14;;;;;;;7.50;3.70;;;;;;;19.21;45.76;101317.38;8321006;28;20049;-64
2023/05/03 16:13:15;;;;;;;10.25;3.72;;;;;;;19.14;46.40;101324.59;8289056;28;20068;-62
2023/05/03 16:17:15;;;;;;;5.70;3.03;;;;;;;19.03;47.03;101322.22;8312243;28;20037;-61
2023/05/03 16:21:16;;;;;;;9.23;3.83;;;;;;;19.13;45.58;101317.38;8319413;28;20268;-62
2023/05/03 16:25:17;;;;;;;5.00;3.47;;;;;;;19.18;45.20;101320.47;8319862;28;20038;-61
2023/05/03 16:29:18;;;;;;;5.90;2.97;;;;;;;19.09;47.09;101310.56;8295790;28;20038;-62
2023/05/03 16:33:19;;;;;;;10.15;3.72;;;;;;;19.01;45.77;101313.34;8287322;28;20046;-63
2023/05/03 16:37:20;;;;;;;13.23;4.00;;;;;;;19.14;45.33;101308.16;8288366;28;20041;-62
2023/05/03 16:41:20;;;;;;;7.85;3.63;;;;;;;19.02;46.32;101309.56;8305558;28;20537;-61
2023/05/03 16:45:21;;;;;;;7.53;3.17;;;;;;;18.95;46.03;101311.28;8319605;28;20395;-62
2023/05/03 16:49:21;;;;;;;5.30;2.60;;;;;;;18.95;51.31;101303.06;8320676;28;20050;-57
2023/05/03 16:53:23;;;;;;;7.65;3.20;;;;;;;18.96;45.84;101299.28;8320448;28;20057;-59
2023/05/03 16:57:23;;;;;;;5.50;3.17;;;;;;;18.87;47.03;101311.31;8317666;28;20044;-59
2023/05/03 17:01:24;;;;;;;9.32;2.60;;;;;;;18.85;46.24;101296.91;8319939;28;20037;-59
2023/05/03 17:05:31;;;;;;;6.78;4.40;;;;;;;18.81;49.28;101301.03;8312432;28;20486;-62
2023/05/03 17:09:32;;;;;;;10.30;6.07;;;;;;;18.58;51.01;101294.59;8320658;28;20041;-61
2023/05/03 17:13:32;;;;;;;10.90;4.90;;;;;;;18.63;51.50;101291.34;8319315;28;20033;-62
2023/05/03 17:17:33;;;;;;;11.60;5.28;;;;;;;18.64;52.40;101280.19;8319345;28;20045;-62
2023/05/03 17:21:33;;;;;;;11.00;6.22;;;;;;;18.41;52.89;101286.53;8311947;28;20152;-62
2023/05/03 17:25:34;;;;;;;9.10;5.80;;;;;;;18.36;53.29;101280.72;8318657;28;20060;-61
2023/05/03 17:29:35;;;;;;;9.55;5.35;;;;;;;18.29;53.53;101288.75;8319760;28;20037;-62
2023/05/03 17:33:35;;;;;;;9.82;5.80;;;;;;;18.22;54.28;101287.72;8320520;28;20038;-62
2023/05/03 17:37:36;;;;;;;10.60;6.28;;;;;;;18.12;53.77;101278.84;8319040;28;20224;-62
2023/05/03 17:41:38;;;;;;;15.65;5.45;;;;;;;17.96;54.20;101283.44;8319559;28;20099;-62
2023/05/03 17:45:40;;;;;;;8.55;5.40;;;;;;;17.94;54.25;101278.13;8317796;28;20102;-61
2023/05/03 17:49:40;;;;;;;8.27;5.28;;;;;;;17.86;54.74;101275.38;8319734;28;20041;-62
2023/05/03 17:53:41;;;;;;;9.85;5.53;;;;;;;17.87;55.21;101282.53;8318987;28;20140;-62
2023/05/03 17:57:43;;;;;;;13.88;5.88;;;;;;;17.82;54.86;101276.75;8319065;28;20037;-62
2023/05/03 18:01:45;;;;;;;14.52;6.20;;;;;;;17.68;56.02;101277.38;8318985;28;20056;-61
2023/05/03 18:05:46;;;;;;;13.32;5.20;;;;;;;17.55;55.72;101277.88;8317895;28;20063;-62
2023/05/03 18:09:47;;;;;;;13.75;5.22;;;;;;;17.48;56.58;101271.34;8318983;28;20385;-62
2023/05/03 18:13:47;;;;;;;11.10;5.60;;;;;;;17.33;57.20;101281.19;8318330;28;20037;-62
2023/05/03 18:17:48;;;;;;;12.00;4.82;;;;;;;17.21;57.32;101284.41;8311044;28;20046;-62
2023/05/03 18:21:48;;;;;;;9.40;4.65;;;;;;;17.08;57.55;101284.00;8316818;28;20568;-61
2023/05/03 18:25:50;;;;;;;9.50;5.35;;;;;;;16.97;57.84;101281.53;8295650;28;20307;-61
2023/05/03 18:29:51;;;;;;;9.50;4.75;;;;;;;16.86;58.39;101274.50;8312302;28;20535;-62
2023/05/03 18:33:52;;;;;;;8.00;4.47;;;;;;;16.84;58.47;101275.69;8316344;28;20411;-61
2023/05/03 18:37:52;;;;;;;9.38;4.85;;;;;;;16.75;59.05;101287.56;8317657;28;20048;-62
2023/05/03 18:41:52;;;;;;;10.73;5.32;;;;;;;16.61;59.36;101279.97;8310903;28;20056;-62
2023/05/03 18:45:53;;;;;;;11.25;5.10;;;;;;;16.47;59.77;101283.28;8316335;28;20412;-61
2023/05/03 18:49:54;;;;;;;8.98;4.97;;;;;;;16.41;59.83;101276.53;8320254;28;20044;-61
2023/05/03 18:53:54;;;;;;;11.38;5.40;;;;;;;16.36;60.03;101273.47;8321391;28;20569;-62
2023/05/03 18:57:55;;;;;;;9.15;4.70;;;;;;;16.23;60.66;101272.16;8316702;28;20044;-60